sensor_id;sensor_type;location;lat;lon;timestamp;P1;durP1;ratioP1;P2;durP2;ratioP2
23206;SDS011;11773;52.570;13.052;2022-11-20T00:00:18;2.40;;;1.80;;
23206;SDS011;11773;52.570;13.052;2022-11-20T00:02:48;1.73;;;1.63;;
23206;SDS011;11773;52.570;13.052;2022-11-20T00:05:17;1.83;;;1.63;;
23206;SDS011;11773;52.570;13.052;2022-11-20T00:07:47;1.40;;;1.30;;
23206;SDS011;11773;52.570;13.052;2022-11-20T00:10:17;1.60;;;1.50;;
23206;SDS011;11773;52.570;13.052;2022-11-20T00:12:46;1.57;;;1.47;;
23206;SDS011;11773;52.570;13.052;2022-11-20T00:15:17;1.80;;;1.60;;
23206;SDS011;11773;52.570;13.052;2022-11-20T00:17:47;2.00;;;1.80;;
23206;SDS011;11773;52.570;13.052;2022-11-20T00:20:16;1.93;;;1.73;;
23206;SDS011;11773;52.570;13.052;2022-11-20T00:22:45;1.50;;;1.40;;
23206;SDS011;11773;52.570;13.052;2022-11-20T00:25:15;1.53;;;1.43;;
23206;SDS011;11773;52.570;13.052;2022-11-20T00:27:45;1.70;;;1.60;;
23206;SDS011;11773;52.570;13.052;2022-11-20T00:30:14;1.40;;;1.30;;
23206;SDS011;11773;52.570;13.052;2022-11-20T00:32:44;1.50;;;1.30;;
23206;SDS011;11773;52.570;13.052;2022-11-20T00:35:13;1.60;;;1.40;;
23206;SDS011;11773;52.570;13.052;2022-11-20T00:37:43;1.33;;;1.20;;
23206;SDS011;11773;52.570;13.052;2022-11-20T00:40:12;1.50;;;1.40;;
23206;SDS011;11773;52.570;13.052;2022-11-20T00:42:42;1.77;;;1.50;;
23206;SDS011;11773;52.570;13.052;2022-11-20T00:45:11;1.70;;;1.37;;
23206;SDS011;11773;52.570;13.052;2022-11-20T00:47:41;1.70;;;1.43;;
23206;SDS011;11773;52.570;13.052;2022-11-20T00:50:10;1.80;;;1.70;;
23206;SDS011;11773;52.570;13.052;2022-11-20T00:52:40;1.90;;;1.80;;
23206;SDS011;11773;52.570;13.052;2022-11-20T00:55:09;1.43;;;1.20;;
23206;SDS011;11773;52.570;13.052;2022-11-20T00:57:38;1.20;;;1.10;;
23206;SDS011;11773;52.570;13.052;2022-11-20T01:00:08;1.50;;;1.40;;
23206;SDS011;11773;52.570;13.052;2022-11-20T01:02:38;2.20;;;2.00;;
23206;SDS011;11773;52.570;13.052;2022-11-20T01:05:07;2.20;;;2.00;;
23206;SDS011;11773;52.570;13.052;2022-11-20T01:07:37;1.60;;;1.50;;
23206;SDS011;11773;52.570;13.052;2022-11-20T01:10:06;1.73;;;1.50;;
23206;SDS011;11773;52.570;13.052;2022-11-20T01:12:36;1.63;;;1.53;;
23206;SDS011;11773;52.570;13.052;2022-11-20T01:15:06;1.43;;;1.33;;
23206;SDS011;11773;52.570;13.052;2022-11-20T01:17:36;1.37;;;1.23;;
23206;SDS011;11773;52.570;13.052;2022-11-20T01:20:05;1.60;;;1.50;;
23206;SDS011;11773;52.570;13.052;2022-11-20T01:22:36;1.60;;;1.40;;
23206;SDS011;11773;52.570;13.052;2022-11-20T01:25:06;1.40;;;1.30;;
23206;SDS011;11773;52.570;13.052;2022-11-20T01:27:35;1.97;;;1.77;;
23206;SDS011;11773;52.570;13.052;2022-11-20T01:30:05;1.57;;;1.47;;
23206;SDS011;11773;52.570;13.052;2022-11-20T01:32:35;1.80;;;1.70;;
23206;SDS011;11773;52.570;13.052;2022-11-20T01:35:05;1.50;;;1.40;;
23206;SDS011;11773;52.570;13.052;2022-11-20T01:37:36;1.90;;;1.70;;
23206;SDS011;11773;52.570;13.052;2022-11-20T01:40:06;1.50;;;1.40;;
23206;SDS011;11773;52.570;13.052;2022-11-20T01:42:36;1.50;;;1.40;;
23206;SDS011;11773;52.570;13.052;2022-11-20T01:48:33;1.67;;;1.50;;
23206;SDS011;11773;52.570;13.052;2022-11-20T01:51:27;1.47;;;1.30;;
23206;SDS011;11773;52.570;13.052;2022-11-20T01:54:02;1.50;;;1.27;;
23206;SDS011;11773;52.570;13.052;2022-11-20T01:56:34;1.80;;;1.70;;
23206;SDS011;11773;52.570;13.052;2022-11-20T01:59:07;1.57;;;1.47;;
23206;SDS011;11773;52.570;13.052;2022-11-20T02:01:40;1.77;;;1.60;;
23206;SDS011;11773;52.570;13.052;2022-11-20T02:04:10;1.43;;;1.33;;
23206;SDS011;11773;52.570;13.052;2022-11-20T02:06:49;1.73;;;1.50;;
23206;SDS011;11773;52.570;13.052;2022-11-20T02:09:30;1.70;;;1.60;;
23206;SDS011;11773;52.570;13.052;2022-11-20T02:12:00;1.33;;;1.20;;
23206;SDS011;11773;52.570;13.052;2022-11-20T02:14:31;1.30;;;1.20;;
23206;SDS011;11773;52.570;13.052;2022-11-20T02:17:00;1.60;;;1.50;;
23206;SDS011;11773;52.570;13.052;2022-11-20T02:19:30;1.77;;;1.60;;
23206;SDS011;11773;52.570;13.052;2022-11-20T02:22:05;1.70;;;1.40;;
23206;SDS011;11773;52.570;13.052;2022-11-20T02:24:40;1.50;;;1.40;;
23206;SDS011;11773;52.570;13.052;2022-11-20T02:27:13;2.20;;;1.40;;
23206;SDS011;11773;52.570;13.052;2022-11-20T02:29:50;1.97;;;1.47;;
23206;SDS011;11773;52.570;13.052;2022-11-20T02:32:31;1.23;;;1.13;;
23206;SDS011;11773;52.570;13.052;2022-11-20T02:35:35;1.70;;;1.60;;
23206;SDS011;11773;52.570;13.052;2022-11-20T02:37:58;1.73;;;1.63;;
23206;SDS011;11773;52.570;13.052;2022-11-20T02:40:25;1.57;;;1.47;;
23206;SDS011;11773;52.570;13.052;2022-11-20T02:42:55;1.50;;;1.40;;
23206;SDS011;11773;52.570;13.052;2022-11-20T02:45:25;1.73;;;1.63;;
23206;SDS011;11773;52.570;13.052;2022-11-20T02:47:55;1.70;;;1.60;;
23206;SDS011;11773;52.570;13.052;2022-11-20T02:50:24;1.33;;;1.23;;
23206;SDS011;11773;52.570;13.052;2022-11-20T02:52:54;1.50;;;1.40;;
23206;SDS011;11773;52.570;13.052;2022-11-20T02:55:23;1.60;;;1.50;;
23206;SDS011;11773;52.570;13.052;2022-11-20T02:57:53;1.17;;;1.17;;
23206;SDS011;11773;52.570;13.052;2022-11-20T03:00:22;1.70;;;1.57;;
23206;SDS011;11773;52.570;13.052;2022-11-20T03:02:52;2.20;;;1.60;;
23206;SDS011;11773;52.570;13.052;2022-11-20T03:05:21;1.50;;;1.40;;
23206;SDS011;11773;52.570;13.052;2022-11-20T03:07:51;1.60;;;1.50;;
23206;SDS011;11773;52.570;13.052;2022-11-20T03:10:20;1.73;;;1.47;;
23206;SDS011;11773;52.570;13.052;2022-11-20T03:12:53;1.77;;;1.57;;
23206;SDS011;11773;52.570;13.052;2022-11-20T03:15:24;1.40;;;1.30;;
23206;SDS011;11773;52.570;13.052;2022-11-20T03:17:54;1.57;;;1.47;;
23206;SDS011;11773;52.570;13.052;2022-11-20T03:20:24;1.50;;;1.40;;
23206;SDS011;11773;52.570;13.052;2022-11-20T03:22:53;1.30;;;1.20;;
23206;SDS011;11773;52.570;13.052;2022-11-20T03:25:23;1.30;;;1.20;;
23206;SDS011;11773;52.570;13.052;2022-11-20T03:27:53;1.57;;;1.47;;
23206;SDS011;11773;52.570;13.052;2022-11-20T03:30:23;1.50;;;1.40;;
23206;SDS011;11773;52.570;13.052;2022-11-20T03:32:54;1.37;;;1.27;;
23206;SDS011;11773;52.570;13.052;2022-11-20T03:35:23;1.50;;;1.40;;
23206;SDS011;11773;52.570;13.052;2022-11-20T03:37:53;1.93;;;1.70;;
23206;SDS011;11773;52.570;13.052;2022-11-20T03:40:22;1.60;;;1.30;;
23206;SDS011;11773;52.570;13.052;2022-11-20T03:42:52;1.40;;;1.30;;
23206;SDS011;11773;52.570;13.052;2022-11-20T03:45:21;1.50;;;1.40;;
23206;SDS011;11773;52.570;13.052;2022-11-20T03:47:50;1.50;;;1.40;;
23206;SDS011;11773;52.570;13.052;2022-11-20T03:50:20;1.30;;;1.20;;
23206;SDS011;11773;52.570;13.052;2022-11-20T03:52:49;1.70;;;1.60;;
23206;SDS011;11773;52.570;13.052;2022-11-20T03:55:19;1.70;;;1.53;;
23206;SDS011;11773;52.570;13.052;2022-11-20T03:57:48;1.80;;;1.63;;
23206;SDS011;11773;52.570;13.052;2022-11-20T04:00:18;1.90;;;1.72;;
23206;SDS011;11773;52.570;13.052;2022-11-20T04:02:47;2.50;;;1.80;;
23206;SDS011;11773;52.570;13.052;2022-11-20T04:05:17;1.83;;;1.50;;
23206;SDS011;11773;52.570;13.052;2022-11-20T04:07:46;1.20;;;1.10;;
23206;SDS011;11773;52.570;13.052;2022-11-20T04:10:16;1.80;;;1.70;;
23206;SDS011;11773;52.570;13.052;2022-11-20T04:12:45;1.67;;;1.57;;
23206;SDS011;11773;52.570;13.052;2022-11-20T04:15:15;2.10;;;1.77;;
23206;SDS011;11773;52.570;13.052;2022-11-20T04:17:44;2.20;;;1.90;;
23206;SDS011;11773;52.570;13.052;2022-11-20T04:20:14;1.73;;;1.50;;
23206;SDS011;11773;52.570;13.052;2022-11-20T04:22:43;2.20;;;1.80;;
23206;SDS011;11773;52.570;13.052;2022-11-20T04:25:13;2.13;;;1.80;;
23206;SDS011;11773;52.570;13.052;2022-11-20T04:27:42;2.13;;;1.93;;
23206;SDS011;11773;52.570;13.052;2022-11-20T04:30:12;1.50;;;1.40;;
23206;SDS011;11773;52.570;13.052;2022-11-20T04:32:41;2.17;;;1.97;;
23206;SDS011;11773;52.570;13.052;2022-11-20T04:35:11;1.53;;;1.43;;
23206;SDS011;11773;52.570;13.052;2022-11-20T04:37:40;2.03;;;1.83;;
23206;SDS011;11773;52.570;13.052;2022-11-20T04:40:10;1.40;;;1.30;;
23206;SDS011;11773;52.570;13.052;2022-11-20T04:42:40;1.57;;;1.47;;
23206;SDS011;11773;52.570;13.052;2022-11-20T04:45:09;1.97;;;1.60;;
23206;SDS011;11773;52.570;13.052;2022-11-20T04:47:38;1.63;;;1.53;;
23206;SDS011;11773;52.570;13.052;2022-11-20T04:50:08;1.87;;;1.70;;
23206;SDS011;11773;52.570;13.052;2022-11-20T04:52:38;1.43;;;1.33;;
23206;SDS011;11773;52.570;13.052;2022-11-20T04:55:07;1.60;;;1.50;;
23206;SDS011;11773;52.570;13.052;2022-11-20T04:57:37;2.27;;;1.80;;
23206;SDS011;11773;52.570;13.052;2022-11-20T05:00:06;1.60;;;1.30;;
23206;SDS011;11773;52.570;13.052;2022-11-20T05:02:37;2.23;;;2.00;;
23206;SDS011;11773;52.570;13.052;2022-11-20T05:05:06;1.70;;;1.60;;
23206;SDS011;11773;52.570;13.052;2022-11-20T05:07:36;2.10;;;1.87;;
23206;SDS011;11773;52.570;13.052;2022-11-20T05:10:06;1.50;;;1.37;;
23206;SDS011;11773;52.570;13.052;2022-11-20T05:12:36;1.97;;;1.57;;
23206;SDS011;11773;52.570;13.052;2022-11-20T05:15:05;2.33;;;2.10;;
23206;SDS011;11773;52.570;13.052;2022-11-20T05:17:35;2.07;;;1.87;;
23206;SDS011;11773;52.570;13.052;2022-11-20T05:20:05;2.00;;;1.80;;
23206;SDS011;11773;52.570;13.052;2022-11-20T05:22:35;1.80;;;1.70;;
23206;SDS011;11773;52.570;13.052;2022-11-20T05:25:05;2.00;;;1.80;;
23206;SDS011;11773;52.570;13.052;2022-11-20T05:27:34;1.70;;;1.60;;
23206;SDS011;11773;52.570;13.052;2022-11-20T05:30:04;1.70;;;1.60;;
23206;SDS011;11773;52.570;13.052;2022-11-20T05:32:34;2.17;;;1.83;;
23206;SDS011;11773;52.570;13.052;2022-11-20T05:35:04;1.47;;;1.33;;
23206;SDS011;11773;52.570;13.052;2022-11-20T05:37:33;1.70;;;1.50;;
23206;SDS011;11773;52.570;13.052;2022-11-20T05:40:03;2.07;;;1.60;;
23206;SDS011;11773;52.570;13.052;2022-11-20T05:42:33;2.20;;;1.77;;
23206;SDS011;11773;52.570;13.052;2022-11-20T05:45:03;1.40;;;1.30;;
23206;SDS011;11773;52.570;13.052;2022-11-20T05:47:33;1.47;;;1.37;;
23206;SDS011;11773;52.570;13.052;2022-11-20T05:50:03;1.80;;;1.70;;
23206;SDS011;11773;52.570;13.052;2022-11-20T05:52:32;1.30;;;1.20;;
23206;SDS011;11773;52.570;13.052;2022-11-20T05:55:02;1.40;;;1.30;;
23206;SDS011;11773;52.570;13.052;2022-11-20T05:57:32;2.00;;;1.67;;
23206;SDS011;11773;52.570;13.052;2022-11-20T06:00:03;2.00;;;1.72;;
23206;SDS011;11773;52.570;13.052;2022-11-20T06:02:34;2.00;;;1.80;;
23206;SDS011;11773;52.570;13.052;2022-11-20T06:05:04;2.57;;;2.37;;
23206;SDS011;11773;52.570;13.052;2022-11-20T06:07:34;2.17;;;1.97;;
23206;SDS011;11773;52.570;13.052;2022-11-20T06:10:03;2.10;;;1.90;;
23206;SDS011;11773;52.570;13.052;2022-11-20T06:12:33;2.03;;;1.53;;
23206;SDS011;11773;52.570;13.052;2022-11-20T06:15:03;2.00;;;1.70;;
23206;SDS011;11773;52.570;13.052;2022-11-20T06:17:33;2.23;;;1.90;;
23206;SDS011;11773;52.570;13.052;2022-11-20T06:20:03;1.70;;;1.47;;
23206;SDS011;11773;52.570;13.052;2022-11-20T06:22:33;1.40;;;1.30;;
23206;SDS011;11773;52.570;13.052;2022-11-20T06:25:02;1.60;;;1.50;;
23206;SDS011;11773;52.570;13.052;2022-11-20T06:27:32;1.47;;;1.37;;
23206;SDS011;11773;52.570;13.052;2022-11-20T06:30:02;1.40;;;1.30;;
23206;SDS011;11773;52.570;13.052;2022-11-20T06:32:32;1.87;;;1.77;;
23206;SDS011;11773;52.570;13.052;2022-11-20T06:35:02;1.23;;;1.13;;
23206;SDS011;11773;52.570;13.052;2022-11-20T06:37:32;1.90;;;1.70;;
23206;SDS011;11773;52.570;13.052;2022-11-20T06:40:02;1.90;;;1.70;;
23206;SDS011;11773;52.570;13.052;2022-11-20T06:42:32;1.70;;;1.60;;
23206;SDS011;11773;52.570;13.052;2022-11-20T06:45:02;2.27;;;2.07;;
23206;SDS011;11773;52.570;13.052;2022-11-20T06:47:32;2.10;;;1.90;;
23206;SDS011;11773;52.570;13.052;2022-11-20T06:50:02;2.70;;;1.90;;
23206;SDS011;11773;52.570;13.052;2022-11-20T06:52:32;1.73;;;1.63;;
23206;SDS011;11773;52.570;13.052;2022-11-20T06:55:03;1.90;;;1.70;;
23206;SDS011;11773;52.570;13.052;2022-11-20T06:57:33;1.60;;;1.50;;
23206;SDS011;11773;52.570;13.052;2022-11-20T07:00:03;1.90;;;1.70;;
23206;SDS011;11773;52.570;13.052;2022-11-20T07:02:33;2.70;;;2.30;;
23206;SDS011;11773;52.570;13.052;2022-11-20T07:05:03;1.83;;;1.73;;
23206;SDS011;11773;52.570;13.052;2022-11-20T07:07:32;1.80;;;1.70;;
23206;SDS011;11773;52.570;13.052;2022-11-20T07:10:02;3.00;;;2.60;;
23206;SDS011;11773;52.570;13.052;2022-11-20T07:12:32;2.57;;;2.30;;
23206;SDS011;11773;52.570;13.052;2022-11-20T07:15:01;2.00;;;1.80;;
23206;SDS011;11773;52.570;13.052;2022-11-20T07:17:31;2.07;;;1.83;;
23206;SDS011;11773;52.570;13.052;2022-11-20T07:20:00;2.47;;;1.93;;
23206;SDS011;11773;52.570;13.052;2022-11-20T07:22:30;2.73;;;2.37;;
23206;SDS011;11773;52.570;13.052;2022-11-20T07:24:59;2.80;;;2.20;;
23206;SDS011;11773;52.570;13.052;2022-11-20T07:27:29;2.90;;;2.50;;
23206;SDS011;11773;52.570;13.052;2022-11-20T07:29:59;3.30;;;2.90;;
23206;SDS011;11773;52.570;13.052;2022-11-20T07:32:28;3.70;;;2.97;;
23206;SDS011;11773;52.570;13.052;2022-11-20T07:34:58;2.30;;;2.10;;
23206;SDS011;11773;52.570;13.052;2022-11-20T07:37:27;2.60;;;2.37;;
23206;SDS011;11773;52.570;13.052;2022-11-20T07:39:57;2.87;;;2.40;;
23206;SDS011;11773;52.570;13.052;2022-11-20T07:42:26;2.27;;;2.03;;
23206;SDS011;11773;52.570;13.052;2022-11-20T07:44:56;4.27;;;2.63;;
23206;SDS011;11773;52.570;13.052;2022-11-20T07:47:25;2.40;;;2.10;;
23206;SDS011;11773;52.570;13.052;2022-11-20T07:49:55;2.77;;;2.10;;
23206;SDS011;11773;52.570;13.052;2022-11-20T07:52:24;2.30;;;2.10;;
23206;SDS011;11773;52.570;13.052;2022-11-20T07:54:53;2.27;;;2.03;;
23206;SDS011;11773;52.570;13.052;2022-11-20T07:57:23;4.00;;;3.30;;
23206;SDS011;11773;52.570;13.052;2022-11-20T07:59:54;2.87;;;2.47;;
23206;SDS011;11773;52.570;13.052;2022-11-20T08:02:24;3.47;;;2.70;;
23206;SDS011;11773;52.570;13.052;2022-11-20T08:04:53;6.10;;;4.67;;
23206;SDS011;11773;52.570;13.052;2022-11-20T08:07:23;5.67;;;4.43;;
23206;SDS011;11773;52.570;13.052;2022-11-20T08:09:52;5.33;;;4.27;;
23206;SDS011;11773;52.570;13.052;2022-11-20T08:12:22;4.20;;;3.40;;
23206;SDS011;11773;52.570;13.052;2022-11-20T08:15:09;3.47;;;2.90;;
23206;SDS011;11773;52.570;13.052;2022-11-20T08:17:39;3.07;;;2.63;;
23206;SDS011;11773;52.570;13.052;2022-11-20T08:20:10;3.60;;;3.20;;
23206;SDS011;11773;52.570;13.052;2022-11-20T08:22:40;3.57;;;3.27;;
23206;SDS011;11773;52.570;13.052;2022-11-20T08:25:09;3.10;;;2.80;;
23206;SDS011;11773;52.570;13.052;2022-11-20T08:27:39;3.03;;;2.60;;
23206;SDS011;11773;52.570;13.052;2022-11-20T08:30:08;3.13;;;2.70;;
23206;SDS011;11773;52.570;13.052;2022-11-20T08:32:39;3.20;;;2.60;;
23206;SDS011;11773;52.570;13.052;2022-11-20T08:35:08;4.63;;;3.20;;
23206;SDS011;11773;52.570;13.052;2022-11-20T08:37:38;4.13;;;3.30;;
23206;SDS011;11773;52.570;13.052;2022-11-20T08:40:09;3.53;;;3.13;;
23206;SDS011;11773;52.570;13.052;2022-11-20T08:42:48;2.87;;;2.57;;
23206;SDS011;11773;52.570;13.052;2022-11-20T08:45:18;3.93;;;2.93;;
23206;SDS011;11773;52.570;13.052;2022-11-20T08:47:48;2.70;;;2.33;;
23206;SDS011;11773;52.570;13.052;2022-11-20T08:50:17;3.20;;;2.90;;
23206;SDS011;11773;52.570;13.052;2022-11-20T08:52:47;2.80;;;2.50;;
23206;SDS011;11773;52.570;13.052;2022-11-20T08:55:16;2.80;;;2.30;;
23206;SDS011;11773;52.570;13.052;2022-11-20T08:57:46;3.00;;;2.70;;
23206;SDS011;11773;52.570;13.052;2022-11-20T09:00:17;2.90;;;2.60;;
23206;SDS011;11773;52.570;13.052;2022-11-20T09:02:46;3.30;;;2.70;;
23206;SDS011;11773;52.570;13.052;2022-11-20T09:05:16;3.30;;;3.00;;
23206;SDS011;11773;52.570;13.052;2022-11-20T09:07:45;3.27;;;2.83;;
23206;SDS011;11773;52.570;13.052;2022-11-20T09:10:15;2.50;;;2.30;;
23206;SDS011;11773;52.570;13.052;2022-11-20T09:12:48;3.07;;;2.67;;
23206;SDS011;11773;52.570;13.052;2022-11-20T09:15:18;3.30;;;2.73;;
23206;SDS011;11773;52.570;13.052;2022-11-20T09:18:02;3.17;;;2.87;;
23206;SDS011;11773;52.570;13.052;2022-11-20T09:20:31;3.20;;;2.77;;
23206;SDS011;11773;52.570;13.052;2022-11-20T09:23:01;4.60;;;2.93;;
23206;SDS011;11773;52.570;13.052;2022-11-20T09:25:30;3.60;;;3.13;;
23206;SDS011;11773;52.570;13.052;2022-11-20T09:28:00;4.37;;;2.93;;
23206;SDS011;11773;52.570;13.052;2022-11-20T09:30:29;3.30;;;2.80;;
23206;SDS011;11773;52.570;13.052;2022-11-20T09:32:59;2.93;;;2.50;;
23206;SDS011;11773;52.570;13.052;2022-11-20T09:35:29;4.20;;;3.50;;
23206;SDS011;11773;52.570;13.052;2022-11-20T09:37:58;3.63;;;3.30;;
23206;SDS011;11773;52.570;13.052;2022-11-20T09:40:31;3.40;;;2.93;;
23206;SDS011;11773;52.570;13.052;2022-11-20T09:43:09;3.33;;;2.90;;
23206;SDS011;11773;52.570;13.052;2022-11-20T09:48:36;3.90;;;3.20;;
23206;SDS011;11773;52.570;13.052;2022-11-20T09:51:27;4.57;;;3.53;;
23206;SDS011;11773;52.570;13.052;2022-11-20T09:54:17;4.27;;;3.47;;
23206;SDS011;11773;52.570;13.052;2022-11-20T09:57:11;4.50;;;3.67;;
23206;SDS011;11773;52.570;13.052;2022-11-20T09:59:30;3.53;;;3.20;;
23206;SDS011;11773;52.570;13.052;2022-11-20T10:02:23;4.23;;;3.60;;
23206;SDS011;11773;52.570;13.052;2022-11-20T10:05:01;5.17;;;3.80;;
23206;SDS011;11773;52.570;13.052;2022-11-20T10:07:51;5.03;;;3.90;;
23206;SDS011;11773;52.570;13.052;2022-11-20T10:13:09;4.73;;;4.23;;
23206;SDS011;11773;52.570;13.052;2022-11-20T10:15:52;5.47;;;4.17;;
23206;SDS011;11773;52.570;13.052;2022-11-20T10:21:41;3.70;;;3.30;;
23206;SDS011;11773;52.570;13.052;2022-11-20T10:24:43;3.70;;;2.97;;
23206;SDS011;11773;52.570;13.052;2022-11-20T10:30:44;4.17;;;3.50;;
23206;SDS011;11773;52.570;13.052;2022-11-20T10:33:24;3.97;;;3.20;;
23206;SDS011;11773;52.570;13.052;2022-11-20T10:41:56;3.57;;;3.27;;
23206;SDS011;11773;52.570;13.052;2022-11-20T10:44:28;3.77;;;3.13;;
23206;SDS011;11773;52.570;13.052;2022-11-20T10:47:18;3.70;;;2.97;;
23206;SDS011;11773;52.570;13.052;2022-11-20T10:49:49;5.17;;;4.23;;
23206;SDS011;11773;52.570;13.052;2022-11-20T10:52:26;3.17;;;2.87;;
23206;SDS011;11773;52.570;13.052;2022-11-20T11:01:22;2.73;;;2.17;;
23206;SDS011;11773;52.570;13.052;2022-11-20T11:03:54;4.27;;;3.43;;
23206;SDS011;11773;52.570;13.052;2022-11-20T11:09:19;4.53;;;3.43;;
23206;SDS011;11773;52.570;13.052;2022-11-20T11:11:52;3.50;;;2.83;;
23206;SDS011;11773;52.570;13.052;2022-11-20T11:14:21;3.50;;;2.87;;
23206;SDS011;11773;52.570;13.052;2022-11-20T11:16:52;3.50;;;3.07;;
23206;SDS011;11773;52.570;13.052;2022-11-20T11:19:25;3.00;;;2.60;;
23206;SDS011;11773;52.570;13.052;2022-11-20T11:21:55;3.53;;;2.80;;
23206;SDS011;11773;52.570;13.052;2022-11-20T11:24:26;3.27;;;2.57;;
23206;SDS011;11773;52.570;13.052;2022-11-20T11:27:00;3.70;;;2.50;;
23206;SDS011;11773;52.570;13.052;2022-11-20T11:29:35;2.63;;;2.27;;
23206;SDS011;11773;52.570;13.052;2022-11-20T11:32:10;1.93;;;1.83;;
23206;SDS011;11773;52.570;13.052;2022-11-20T11:34:44;2.30;;;2.10;;
23206;SDS011;11773;52.570;13.052;2022-11-20T11:37:35;2.10;;;1.80;;
23206;SDS011;11773;52.570;13.052;2022-11-20T11:40:08;2.00;;;1.80;;
23206;SDS011;11773;52.570;13.052;2022-11-20T11:42:46;3.33;;;2.67;;
23206;SDS011;11773;52.570;13.052;2022-11-20T11:45:24;2.40;;;2.20;;
23206;SDS011;11773;52.570;13.052;2022-11-20T11:47:55;3.00;;;2.70;;
23206;SDS011;11773;52.570;13.052;2022-11-20T11:50:28;3.40;;;3.10;;
23206;SDS011;11773;52.570;13.052;2022-11-20T11:53:18;2.87;;;2.57;;
23206;SDS011;11773;52.570;13.052;2022-11-20T11:55:51;2.67;;;2.40;;
23206;SDS011;11773;52.570;13.052;2022-11-20T11:58:48;2.50;;;2.30;;
23206;SDS011;11773;52.570;13.052;2022-11-20T12:01:32;2.43;;;2.23;;
23206;SDS011;11773;52.570;13.052;2022-11-20T12:07:20;2.40;;;1.93;;
23206;SDS011;11773;52.570;13.052;2022-11-20T12:10:04;3.23;;;2.80;;
23206;SDS011;11773;52.570;13.052;2022-11-20T12:12:44;2.47;;;2.27;;
23206;SDS011;11773;52.570;13.052;2022-11-20T12:15:31;2.10;;;1.90;;
23206;SDS011;11773;52.570;13.052;2022-11-20T12:18:04;2.60;;;2.40;;
23206;SDS011;11773;52.570;13.052;2022-11-20T12:20:39;2.53;;;2.23;;
23206;SDS011;11773;52.570;13.052;2022-11-20T12:25:56;3.13;;;2.37;;
23206;SDS011;11773;52.570;13.052;2022-11-20T12:28:33;4.33;;;3.33;;
23206;SDS011;11773;52.570;13.052;2022-11-20T12:31:14;3.47;;;2.87;;
23206;SDS011;11773;52.570;13.052;2022-11-20T12:34:02;3.20;;;2.73;;
23206;SDS011;11773;52.570;13.052;2022-11-20T12:36:38;2.37;;;2.13;;
23206;SDS011;11773;52.570;13.052;2022-11-20T12:41:55;3.00;;;2.43;;
23206;SDS011;11773;52.570;13.052;2022-11-20T12:45:02;4.07;;;2.90;;
23206;SDS011;11773;52.570;13.052;2022-11-20T12:47:59;3.47;;;3.03;;
23206;SDS011;11773;52.570;13.052;2022-11-20T12:56:49;3.13;;;2.27;;
23206;SDS011;11773;52.570;13.052;2022-11-20T12:59:33;3.20;;;2.83;;
23206;SDS011;11773;52.570;13.052;2022-11-20T13:02:25;2.40;;;2.20;;
23206;SDS011;11773;52.570;13.052;2022-11-20T13:08:29;2.50;;;2.20;;
23206;SDS011;11773;52.570;13.052;2022-11-20T13:10:59;1.83;;;1.70;;
23206;SDS011;11773;52.570;13.052;2022-11-20T13:13:43;1.90;;;1.70;;
23206;SDS011;11773;52.570;13.052;2022-11-20T13:19:21;1.70;;;1.60;;
23206;SDS011;11773;52.570;13.052;2022-11-20T13:21:51;1.80;;;1.70;;
23206;SDS011;11773;52.570;13.052;2022-11-20T13:24:22;3.10;;;2.70;;
23206;SDS011;11773;52.570;13.052;2022-11-20T13:27:04;2.40;;;2.20;;
23206;SDS011;11773;52.570;13.052;2022-11-20T13:29:43;2.50;;;1.97;;
23206;SDS011;11773;52.570;13.052;2022-11-20T13:32:20;2.43;;;1.97;;
23206;SDS011;11773;52.570;13.052;2022-11-20T13:37:30;2.47;;;1.83;;
23206;SDS011;11773;52.570;13.052;2022-11-20T13:40:05;2.10;;;1.90;;
23206;SDS011;11773;52.570;13.052;2022-11-20T13:45:54;1.63;;;1.53;;
23206;SDS011;11773;52.570;13.052;2022-11-20T13:48:39;1.60;;;1.50;;
23206;SDS011;11773;52.570;13.052;2022-11-20T13:51:22;1.47;;;1.37;;
23206;SDS011;11773;52.570;13.052;2022-11-20T13:54:05;1.70;;;1.47;;
23206;SDS011;11773;52.570;13.052;2022-11-20T13:57:12;2.13;;;1.93;;
23206;SDS011;11773;52.570;13.052;2022-11-20T13:59:58;2.23;;;1.87;;
23206;SDS011;11773;52.570;13.052;2022-11-20T14:02:42;2.30;;;2.10;;
23206;SDS011;11773;52.570;13.052;2022-11-20T14:05:18;2.20;;;2.00;;
23206;SDS011;11773;52.570;13.052;2022-11-20T14:07:52;1.40;;;1.30;;
23206;SDS011;11773;52.570;13.052;2022-11-20T14:10:24;2.00;;;1.80;;
23206;SDS011;11773;52.570;13.052;2022-11-20T14:12:58;1.73;;;1.63;;
23206;SDS011;11773;52.570;13.052;2022-11-20T14:15:44;3.30;;;3.00;;
23206;SDS011;11773;52.570;13.052;2022-11-20T14:18:15;3.00;;;2.80;;
23206;SDS011;11773;52.570;13.052;2022-11-20T14:20:49;2.50;;;2.25;;
23206;SDS011;11773;52.570;13.052;2022-11-20T14:23:25;2.10;;;1.90;;
23206;SDS011;11773;52.570;13.052;2022-11-20T14:25:56;2.10;;;1.90;;
23206;SDS011;11773;52.570;13.052;2022-11-20T14:28:27;2.00;;;1.90;;
23206;SDS011;11773;52.570;13.052;2022-11-20T14:30:58;2.10;;;1.90;;
23206;SDS011;11773;52.570;13.052;2022-11-20T14:33:28;1.87;;;1.73;;
23206;SDS011;11773;52.570;13.052;2022-11-20T14:36:00;2.07;;;1.90;;
23206;SDS011;11773;52.570;13.052;2022-11-20T14:38:31;2.90;;;2.60;;
23206;SDS011;11773;52.570;13.052;2022-11-20T14:41:07;2.27;;;2.07;;
23206;SDS011;11773;52.570;13.052;2022-11-20T14:43:39;2.30;;;2.10;;
23206;SDS011;11773;52.570;13.052;2022-11-20T14:46:15;2.07;;;1.87;;
23206;SDS011;11773;52.570;13.052;2022-11-20T14:48:49;2.60;;;2.40;;
23206;SDS011;11773;52.570;13.052;2022-11-20T14:51:32;1.60;;;1.50;;
23206;SDS011;11773;52.570;13.052;2022-11-20T14:54:16;1.40;;;1.30;;
23206;SDS011;11773;52.570;13.052;2022-11-20T14:56:57;1.37;;;1.10;;
23206;SDS011;11773;52.570;13.052;2022-11-20T14:59:31;2.00;;;1.80;;
23206;SDS011;11773;52.570;13.052;2022-11-20T15:02:06;1.33;;;1.23;;
23206;SDS011;11773;52.570;13.052;2022-11-20T15:04:49;3.93;;;2.83;;
23206;SDS011;11773;52.570;13.052;2022-11-20T15:07:33;2.90;;;2.47;;
23206;SDS011;11773;52.570;13.052;2022-11-20T15:10:06;2.50;;;2.17;;
23206;SDS011;11773;52.570;13.052;2022-11-20T15:12:40;2.10;;;1.83;;
23206;SDS011;11773;52.570;13.052;2022-11-20T15:15:22;1.97;;;1.87;;
23206;SDS011;11773;52.570;13.052;2022-11-20T15:18:13;2.40;;;2.13;;
23206;SDS011;11773;52.570;13.052;2022-11-20T15:20:47;2.20;;;2.00;;
23206;SDS011;11773;52.570;13.052;2022-11-20T15:23:18;1.70;;;1.60;;
23206;SDS011;11773;52.570;13.052;2022-11-20T15:25:48;1.60;;;1.50;;
23206;SDS011;11773;52.570;13.052;2022-11-20T15:28:19;1.77;;;1.57;;
23206;SDS011;11773;52.570;13.052;2022-11-20T15:30:52;1.67;;;1.40;;
23206;SDS011;11773;52.570;13.052;2022-11-20T15:33:23;1.43;;;1.33;;
23206;SDS011;11773;52.570;13.052;2022-11-20T15:35:52;1.50;;;1.40;;
23206;SDS011;11773;52.570;13.052;2022-11-20T15:38:22;1.30;;;1.20;;
23206;SDS011;11773;52.570;13.052;2022-11-20T15:40:51;2.33;;;2.10;;
23206;SDS011;11773;52.570;13.052;2022-11-20T15:43:21;1.40;;;1.30;;
23206;SDS011;11773;52.570;13.052;2022-11-20T15:45:51;1.70;;;1.60;;
23206;SDS011;11773;52.570;13.052;2022-11-20T15:48:39;1.47;;;1.37;;
23206;SDS011;11773;52.570;13.052;2022-11-20T15:51:39;1.73;;;1.57;;
23206;SDS011;11773;52.570;13.052;2022-11-20T15:54:11;1.20;;;1.10;;
23206;SDS011;11773;52.570;13.052;2022-11-20T15:56:50;1.47;;;1.33;;
23206;SDS011;11773;52.570;13.052;2022-11-20T15:59:20;1.80;;;1.70;;
23206;SDS011;11773;52.570;13.052;2022-11-20T16:01:49;1.57;;;1.22;;
23206;SDS011;11773;52.570;13.052;2022-11-20T16:04:18;1.30;;;1.20;;